createdAt,value
2018-06-28T00:00:55.164Z,59.80
2018-06-28T00:03:23.934Z,60.08
2018-06-28T00:05:52.537Z,60.35
2018-06-28T00:08:21.100Z,60.90
2018-06-28T00:10:49.814Z,60.15
2018-06-28T00:13:18.440Z,62.00
2018-06-28T00:15:47.049Z,62.53
2018-06-28T00:18:15.692Z,62.17
2018-06-28T00:20:44.249Z,62.16
2018-06-28T00:23:12.888Z,62.91
2018-06-28T00:25:41.559Z,62.70
2018-06-28T00:28:10.112Z,62.64
2018-06-28T00:30:38.720Z,63.56
2018-06-28T00:33:07.284Z,63.78
2018-06-28T00:35:35.837Z,63.97
2018-06-28T00:38:04.416Z,63.84
2018-06-28T00:40:32.981Z,65.10
2018-06-28T00:43:01.605Z,65.95
2018-06-28T00:45:30.161Z,66.58
2018-06-28T00:47:58.921Z,66.28
2018-06-28T00:50:27.496Z,67.18
2018-06-28T00:52:56.092Z,68.20
2018-06-28T00:55:24.683Z,67.71
2018-06-28T00:57:53.216Z,67.43
2018-06-28T01:00:21.870Z,68.48
2018-06-28T01:02:50.453Z,68.30
2018-06-28T01:05:19.088Z,68.68
2018-06-28T01:07:47.681Z,68.48
2018-06-28T01:10:16.276Z,67.66
2018-06-28T01:12:45.408Z,69.08
2018-06-28T01:15:14.164Z,69.85
2018-06-28T01:17:42.765Z,70.29
2018-06-28T01:20:11.515Z,71.00
2018-06-28T01:22:40.132Z,71.37
2018-06-28T01:25:08.758Z,71.72
2018-06-28T01:27:37.353Z,71.50
2018-06-28T01:30:06.441Z,71.71
2018-06-28T01:32:35.006Z,71.40
2018-06-28T01:35:03.793Z,70.68
2018-06-28T01:37:32.456Z,71.23
2018-06-28T01:40:01.058Z,71.38
2018-06-28T01:42:45.432Z,71.38
2018-06-28T01:45:13.988Z,72.73
2018-06-28T01:47:42.532Z,72.75
2018-06-28T01:50:11.116Z,72.58
2018-06-28T01:52:39.932Z,71.77
2018-06-28T01:55:08.505Z,72.51
2018-06-28T01:57:37.057Z,72.58
2018-06-28T02:00:06.236Z,72.82
2018-06-28T02:02:34.771Z,72.98
2018-06-28T02:05:03.410Z,72.80
2018-06-28T02:07:32.300Z,72.23
2018-06-28T02:10:01.050Z,72.80
2018-06-28T02:12:29.626Z,72.77
2018-06-28T02:14:58.598Z,73.39
2018-06-28T02:17:27.240Z,73.62
2018-06-28T02:19:55.781Z,73.12
2018-06-28T02:22:24.592Z,74.25
2018-06-28T02:24:53.180Z,74.27
2018-06-28T02:27:21.764Z,74.19
2018-06-28T02:29:50.392Z,74.15
2018-06-28T02:32:18.945Z,73.85
2018-06-28T02:34:47.573Z,73.82
2018-06-28T02:37:16.186Z,73.16
2018-06-28T02:39:44.748Z,72.23
2018-06-28T02:42:13.417Z,72.84
2018-06-28T02:44:42.060Z,73.38
2018-06-28T02:47:10.901Z,73.66
2018-06-28T02:49:39.532Z,74.52
2018-06-28T02:52:08.144Z,74.28
2018-06-28T02:54:36.678Z,74.14
2018-06-28T02:57:05.210Z,76.07
2018-06-28T02:59:34.008Z,75.50
2018-06-28T03:02:02.530Z,75.94
2018-06-28T03:04:31.109Z,75.31
2018-06-28T03:06:59.752Z,76.22
2018-06-28T03:09:28.307Z,76.50
2018-06-28T03:11:57.201Z,76.67
2018-06-28T03:14:25.824Z,76.52
2018-06-28T03:16:54.445Z,74.77
2018-06-28T03:19:23.008Z,76.28
2018-06-28T03:21:51.611Z,76.45
2018-06-28T03:24:20.548Z,76.29
2018-06-28T03:26:49.145Z,76.16
2018-06-28T03:29:17.682Z,76.81
2018-06-28T03:31:46.241Z,75.96
2018-06-28T03:34:15.023Z,77.24
2018-06-28T03:36:43.837Z,76.63
2018-06-28T03:39:13.750Z,77.02
2018-06-28T03:41:42.869Z,76.73
2018-06-28T03:44:13.212Z,77.49
2018-06-28T03:46:42.193Z,77.18
2018-06-28T03:49:11.843Z,76.62
2018-06-28T03:51:40.728Z,76.71
2018-06-28T03:54:09.956Z,75.97
2018-06-28T03:56:39.033Z,78.32
2018-06-28T03:59:07.868Z,76.48
2018-06-28T04:01:36.464Z,77.13
2018-06-28T04:04:05.110Z,76.53
2018-06-28T04:06:33.754Z,77.56
2018-06-28T04:09:02.356Z,76.47
2018-06-28T04:11:30.901Z,77.38
2018-06-28T04:13:59.498Z,77.13
2018-06-28T04:16:28.162Z,77.66
2018-06-28T04:18:56.801Z,76.87
2018-06-28T04:21:25.408Z,77.29
2018-06-28T04:23:54.241Z,76.59
2018-06-28T04:26:23.217Z,77.36
2018-06-28T04:28:51.797Z,75.40
2018-06-28T04:31:20.427Z,73.11
2018-06-28T04:33:49.120Z,70.59
2018-06-28T04:36:17.716Z,70.43
2018-06-28T04:38:46.268Z,66.98
2018-06-28T04:41:14.924Z,64.72
2018-06-28T04:43:43.497Z,64.93
2018-06-28T04:46:12.084Z,66.10
2018-06-28T04:48:40.788Z,65.94
2018-06-28T04:51:09.378Z,67.10
2018-06-28T04:53:37.894Z,66.38
2018-06-28T04:56:06.595Z,65.80
2018-06-28T04:58:35.164Z,66.01
2018-06-28T05:01:03.822Z,63.71
2018-06-28T05:03:32.472Z,63.25
2018-06-28T05:06:01.032Z,61.91
2018-06-28T05:08:29.653Z,59.80
2018-06-28T05:10:58.217Z,60.39
2018-06-28T05:13:26.780Z,58.71
2018-06-28T05:15:55.353Z,58.41
2018-06-28T05:18:23.949Z,58.92
2018-06-28T05:20:52.474Z,58.00
2018-06-28T05:23:21.045Z,57.00
2018-06-28T05:25:49.753Z,57.47
2018-06-28T05:28:18.392Z,56.68
2018-06-28T05:30:47.157Z,56.00
2018-06-28T05:33:15.717Z,55.52
2018-06-28T05:35:44.290Z,55.80
2018-06-28T05:38:12.914Z,56.07
2018-06-28T05:40:41.500Z,55.02
2018-06-28T05:43:10.109Z,53.49
2018-06-28T05:45:38.677Z,55.40
2018-06-28T05:48:07.371Z,55.69
2018-06-28T05:50:35.984Z,55.81
2018-06-28T05:53:04.597Z,54.49
2018-06-28T05:55:33.184Z,54.28
2018-06-28T05:58:01.872Z,54.42
2018-06-28T06:00:30.534Z,52.70
2018-06-28T06:02:59.099Z,53.69
2018-06-28T06:05:27.653Z,53.25
2018-06-28T06:07:56.184Z,54.03
2018-06-28T06:10:24.943Z,52.86
2018-06-28T06:12:53.692Z,51.55
2018-06-28T06:15:22.254Z,50.61
2018-06-28T06:17:50.814Z,50.26
2018-06-28T06:20:19.488Z,49.05
2018-06-28T06:22:48.012Z,48.97
2018-06-28T06:25:16.662Z,47.47
2018-06-28T06:27:45.300Z,48.26
2018-06-28T06:30:14.094Z,48.63
2018-06-28T06:32:42.621Z,48.29
2018-06-28T06:35:11.165Z,47.24
2018-06-28T06:37:39.728Z,48.66
2018-06-28T06:40:08.313Z,48.47
2018-06-28T06:42:37.152Z,49.37
2018-06-28T06:45:06.333Z,47.72
2018-06-28T06:47:35.144Z,45.83
2018-06-28T06:50:03.828Z,46.00
2018-06-28T06:52:32.535Z,46.08
2018-06-28T06:55:01.124Z,46.58
2018-06-28T06:57:29.738Z,45.33
2018-06-28T06:59:58.368Z,45.87
2018-06-28T07:02:26.901Z,45.93
2018-06-28T07:04:55.552Z,47.24
2018-06-28T07:07:24.209Z,46.09
2018-06-28T07:09:52.692Z,47.09
2018-06-28T07:12:21.280Z,45.96
2018-06-28T07:14:50.009Z,46.41
2018-06-28T07:17:18.944Z,46.14
2018-06-28T07:19:47.709Z,47.39
2018-06-28T07:22:16.264Z,47.47
2018-06-28T07:24:44.929Z,47.07
2018-06-28T07:27:13.550Z,47.86
2018-06-28T07:29:42.120Z,46.40
2018-06-28T07:32:10.685Z,46.45
2018-06-28T07:34:39.302Z,46.23
2018-06-28T07:37:07.821Z,46.31
2018-06-28T07:39:36.492Z,45.76
2018-06-28T07:42:05.066Z,47.02
2018-06-28T07:44:33.652Z,45.25
2018-06-28T07:47:02.345Z,46.03
2018-06-28T07:49:31.049Z,46.05
2018-06-28T07:51:59.776Z,45.36
2018-06-28T07:54:28.469Z,46.75
2018-06-28T07:56:57.153Z,47.06
2018-06-28T07:59:26.000Z,46.53
2018-06-28T08:01:54.548Z,46.56
2018-06-28T08:04:23.096Z,44.88
2018-06-28T08:06:51.880Z,46.38
2018-06-28T08:09:20.405Z,45.30
2018-06-28T08:11:48.973Z,45.20
2018-06-28T08:14:17.621Z,44.59
2018-06-28T08:16:46.221Z,44.73
2018-06-28T08:19:14.849Z,45.93
2018-06-28T08:21:43.432Z,44.52
2018-06-28T08:24:12.036Z,45.21
2018-06-28T08:26:40.614Z,45.12
2018-06-28T08:29:09.218Z,44.63
2018-06-28T08:31:37.837Z,44.02
2018-06-28T08:34:06.723Z,44.83
2018-06-28T08:36:35.651Z,44.94
2018-06-28T08:39:06.414Z,44.97
2018-06-28T08:41:35.308Z,43.96
2018-06-28T08:44:03.924Z,43.85
2018-06-28T08:46:32.576Z,43.60
2018-06-28T08:49:01.208Z,43.94
2018-06-28T08:51:29.807Z,42.93
2018-06-28T08:53:58.514Z,43.42
2018-06-28T08:56:27.133Z,44.06
2018-06-28T08:58:55.684Z,43.15
2018-06-28T09:01:24.260Z,44.05
2018-06-28T09:03:52.777Z,44.69
2018-06-28T09:06:21.369Z,42.95
2018-06-28T09:08:49.992Z,43.57
2018-06-28T09:11:18.921Z,43.29
2018-06-28T09:13:47.437Z,43.22
2018-06-28T09:16:15.977Z,42.29
2018-06-28T09:18:44.809Z,42.27
2018-06-28T09:21:13.504Z,42.45
2018-06-28T09:23:42.125Z,42.65
2018-06-28T09:26:10.738Z,43.21
2018-06-28T09:28:39.307Z,41.73
2018-06-28T09:31:07.892Z,43.08
2018-06-28T09:33:36.524Z,42.89
2018-06-28T09:36:05.136Z,43.08
2018-06-28T09:38:33.692Z,42.30
2018-06-28T09:41:02.316Z,41.14
2018-06-28T09:43:30.877Z,40.16
2018-06-28T09:45:59.468Z,39.86
2018-06-28T09:48:28.142Z,40.57
2018-06-28T09:50:56.661Z,40.51
2018-06-28T09:53:25.244Z,39.95
2018-06-28T09:55:53.758Z,38.07
2018-06-28T09:58:22.425Z,39.80
2018-06-28T10:00:51.068Z,40.16
2018-06-28T10:03:19.635Z,40.20
2018-06-28T10:05:48.209Z,39.65
2018-06-28T10:08:16.700Z,40.18
2018-06-28T10:10:45.262Z,40.20
2018-06-28T10:13:13.977Z,39.78
2018-06-28T10:15:42.616Z,39.76
2018-06-28T10:18:11.301Z,40.33
2018-06-28T10:20:39.830Z,40.90
2018-06-28T10:23:08.668Z,40.32
2018-06-28T10:25:37.248Z,40.50
2018-06-28T10:28:05.934Z,40.23
2018-06-28T10:30:34.513Z,40.61
2018-06-28T10:33:03.119Z,40.38
2018-06-28T10:35:31.716Z,40.40
2018-06-28T10:38:00.252Z,38.60
2018-06-28T10:40:29.052Z,39.36
2018-06-28T10:42:57.608Z,41.10
2018-06-28T10:45:26.285Z,39.89
2018-06-28T10:47:54.820Z,38.96
2018-06-28T10:50:23.411Z,39.36
2018-06-28T10:52:51.972Z,38.83
2018-06-28T10:55:20.495Z,39.47
2018-06-28T10:57:49.526Z,38.65
2018-06-28T11:00:18.520Z,38.96
2018-06-28T11:02:47.458Z,39.66
2018-06-28T11:05:16.104Z,39.51
2018-06-28T11:07:44.643Z,39.14
2018-06-28T11:10:13.202Z,41.25
2018-06-28T11:12:41.772Z,39.62
2018-06-28T11:15:10.404Z,38.93
2018-06-28T11:17:39.055Z,39.35
2018-06-28T11:20:07.592Z,39.34
2018-06-28T11:22:36.233Z,39.92
2018-06-28T11:25:04.900Z,40.60
2018-06-28T11:27:33.507Z,40.69
2018-06-28T11:30:02.101Z,39.70
2018-06-28T11:32:30.716Z,41.03
2018-06-28T11:34:59.291Z,39.96
2018-06-28T11:37:27.838Z,39.12
2018-06-28T11:39:56.629Z,39.63
2018-06-28T11:42:25.199Z,40.04
2018-06-28T11:44:53.753Z,39.06
2018-06-28T11:47:22.456Z,41.99
2018-06-28T11:49:51.014Z,39.24
2018-06-28T11:52:19.754Z,39.80
2018-06-28T11:54:48.336Z,40.11
2018-06-28T11:57:16.889Z,38.18
2018-06-28T11:59:45.438Z,38.66
2018-06-28T12:02:14.164Z,37.79
2018-06-28T12:04:42.836Z,38.41
2018-06-28T12:07:11.412Z,39.43
2018-06-28T12:09:40.029Z,38.94
2018-06-28T12:12:08.623Z,38.22
2018-06-28T12:14:37.336Z,38.59
2018-06-28T12:17:06.420Z,39.22
2018-06-28T12:19:35.072Z,38.23
2018-06-28T12:22:03.750Z,38.29
2018-06-28T12:24:32.276Z,38.50
2018-06-28T12:27:01.372Z,38.99
2018-06-28T12:29:30.256Z,38.59
2018-06-28T12:31:58.916Z,38.47
2018-06-28T12:34:27.548Z,37.09
2018-06-28T12:36:56.564Z,37.17
2018-06-28T12:39:25.216Z,37.20
2018-06-28T12:41:53.768Z,37.29
2018-06-28T12:44:22.361Z,37.58
2018-06-28T12:48:59.132Z,37.06
2018-06-28T12:51:38.940Z,39.43
2018-06-28T12:54:07.590Z,37.66
2018-06-28T12:56:37.630Z,38.45
2018-06-28T12:59:08.923Z,37.89
2018-06-28T13:01:37.477Z,37.25
2018-06-28T13:04:06.226Z,38.61
2018-06-28T13:06:34.865Z,38.40
2018-06-28T13:09:04.993Z,37.03
2018-06-28T13:11:33.576Z,38.13
2018-06-28T13:14:02.222Z,37.57
2018-06-28T13:16:30.844Z,37.86
2018-06-28T13:18:59.458Z,38.51
2018-06-28T13:21:28.009Z,38.49
2018-06-28T13:23:56.708Z,38.22
2018-06-28T13:26:25.368Z,36.97
2018-06-28T13:28:53.985Z,36.24
2018-06-28T13:31:22.652Z,35.88
2018-06-28T13:33:51.609Z,37.06
2018-06-28T13:36:20.148Z,37.10
2018-06-28T13:38:48.907Z,37.35
2018-06-28T13:41:17.782Z,37.28
2018-06-28T13:43:46.169Z,36.57
2018-06-28T13:46:14.887Z,37.82
2018-06-28T13:48:43.701Z,35.71
2018-06-28T13:51:12.372Z,36.33
2018-06-28T13:53:41.096Z,37.31
2018-06-28T13:56:09.816Z,37.08
2018-06-28T13:58:38.492Z,34.90
2018-06-28T14:01:07.145Z,35.63
2018-06-28T14:03:35.852Z,36.74
2018-06-28T14:06:04.566Z,36.32
2018-06-28T14:08:33.244Z,36.66
2018-06-28T14:11:01.861Z,37.36
2018-06-28T14:13:30.447Z,36.45
2018-06-28T14:15:59.064Z,36.55
2018-06-28T14:18:27.893Z,36.02
2018-06-28T14:20:56.421Z,35.43
2018-06-28T14:23:25.001Z,35.14
2018-06-28T14:25:53.717Z,34.87
2018-06-28T14:28:22.308Z,34.61
2018-06-28T14:30:51.117Z,35.13
2018-06-28T14:33:19.828Z,34.07
2018-06-28T14:35:48.448Z,35.31
2018-06-28T14:38:17.001Z,34.22
2018-06-28T14:40:45.622Z,32.57
2018-06-28T14:43:14.184Z,34.89
2018-06-28T14:45:42.835Z,34.80
2018-06-28T14:48:11.384Z,34.01
2018-06-28T14:50:40.169Z,33.52
2018-06-28T14:53:08.664Z,34.78
2018-06-28T14:55:37.308Z,35.76
2018-06-28T14:58:06.009Z,35.25
2018-06-28T15:00:34.620Z,35.39
2018-06-28T15:03:03.173Z,35.71
2018-06-28T15:05:31.784Z,36.48
2018-06-28T15:08:00.411Z,35.36
2018-06-28T15:10:29.056Z,36.80
2018-06-28T15:12:57.688Z,35.84
2018-06-28T15:15:26.263Z,35.19
2018-06-28T15:17:54.913Z,36.32
2018-06-28T15:20:23.547Z,35.23
2018-06-28T15:22:52.179Z,36.21
2018-06-28T15:25:20.852Z,36.68
2018-06-28T15:27:50.351Z,36.12
2018-06-28T15:30:18.856Z,36.29
2018-06-28T15:32:47.409Z,35.84
2018-06-28T15:35:16.331Z,37.16
2018-06-28T15:37:45.092Z,37.33
2018-06-28T15:40:13.781Z,35.32
2018-06-28T15:42:42.393Z,37.57
2018-06-28T15:45:11.044Z,37.14
2018-06-28T15:47:39.869Z,37.54
2018-06-28T15:50:08.664Z,38.77
2018-06-28T15:52:37.584Z,38.76
2018-06-28T15:55:06.241Z,38.30
2018-06-28T15:57:35.035Z,38.92
2018-06-28T16:00:03.721Z,38.17
2018-06-28T16:02:32.468Z,38.98
2018-06-28T16:05:01.093Z,39.95
2018-06-28T16:07:29.633Z,39.80
2018-06-28T16:09:58.260Z,39.38
2018-06-28T16:12:26.805Z,39.29
2018-06-28T16:14:55.668Z,40.21
2018-06-28T16:17:24.316Z,40.95
2018-06-28T16:19:52.939Z,41.32
2018-06-28T16:22:21.508Z,39.98
2018-06-28T16:24:50.039Z,40.58
2018-06-28T16:27:18.617Z,40.48
2018-06-28T16:29:47.184Z,40.93
2018-06-28T16:32:15.784Z,40.43
2018-06-28T16:34:44.544Z,41.60
2018-06-28T16:37:13.104Z,40.86
2018-06-28T16:39:41.624Z,41.46
2018-06-28T16:42:10.304Z,38.92
2018-06-28T16:44:38.905Z,39.51
2018-06-28T16:47:07.472Z,40.16
2018-06-28T16:49:36.065Z,40.89
2018-06-28T16:52:04.728Z,41.10
2018-06-28T16:54:33.280Z,40.45
2018-06-28T16:57:01.836Z,40.50
2018-06-28T16:59:30.585Z,40.34
2018-06-28T17:01:59.187Z,40.85
2018-06-28T17:04:27.971Z,41.16
2018-06-28T17:06:56.544Z,41.28
2018-06-28T17:09:25.124Z,40.71
2018-06-28T17:11:53.787Z,42.97
2018-06-28T17:14:22.424Z,42.38
2018-06-28T17:16:50.976Z,43.38
2018-06-28T17:19:19.540Z,42.80
2018-06-28T17:21:48.266Z,42.57
2018-06-28T17:24:16.851Z,42.72
2018-06-28T17:26:45.421Z,42.91
2018-06-28T17:29:13.964Z,44.07
2018-06-28T17:31:42.895Z,44.08
2018-06-28T17:34:11.450Z,44.81
2018-06-28T17:36:39.973Z,44.57
2018-06-28T17:39:09.612Z,44.63
2018-06-28T17:41:38.688Z,45.42
2018-06-28T17:44:07.489Z,45.09
2018-06-28T17:46:36.052Z,46.12
2018-06-28T17:49:04.688Z,45.02
2018-06-28T17:51:33.241Z,43.34
2018-06-28T17:54:01.848Z,45.63
2018-06-28T17:56:30.612Z,44.59
2018-06-28T17:58:59.135Z,46.03
2018-06-28T18:01:27.751Z,46.12
2018-06-28T18:03:56.333Z,45.42
2018-06-28T18:06:24.919Z,45.28
2018-06-28T18:08:53.590Z,43.95
2018-06-28T18:11:22.248Z,45.04
2018-06-28T18:13:50.856Z,43.29
2018-06-28T18:16:19.472Z,43.36
2018-06-28T18:18:48.473Z,43.51
2018-06-28T18:21:17.076Z,43.41
2018-06-28T18:23:45.656Z,43.84
2018-06-28T18:26:14.356Z,44.26
2018-06-28T18:28:42.964Z,44.07
2018-06-28T18:31:11.794Z,43.79
2018-06-28T18:33:40.284Z,43.77
2018-06-28T18:36:08.957Z,44.13
2018-06-28T18:38:37.692Z,43.11
2018-06-28T18:41:08.565Z,43.47
2018-06-28T18:43:37.364Z,43.58
2018-06-28T18:46:06.400Z,44.74
2018-06-28T18:48:35.049Z,44.17
2018-06-28T18:51:03.789Z,45.53
2018-06-28T18:53:32.656Z,45.40
2018-06-28T18:56:01.706Z,44.49
2018-06-28T18:58:30.464Z,44.94
2018-06-28T19:00:59.084Z,45.12
2018-06-28T19:03:27.656Z,46.00
2018-06-28T19:05:56.296Z,45.23
2018-06-28T19:08:24.801Z,45.26
2018-06-28T19:10:54.833Z,44.53
2018-06-28T19:13:24.686Z,45.33
2018-06-28T19:15:58.860Z,44.84
2018-06-28T19:18:27.728Z,44.50
2018-06-28T19:21:01.741Z,45.24
2018-06-28T19:23:35.505Z,43.65
2018-06-28T19:26:04.312Z,44.33
2018-06-28T19:28:32.969Z,45.12
2018-06-28T19:31:06.761Z,45.95
2018-06-28T19:33:35.380Z,46.11
2018-06-28T19:36:03.981Z,46.45
2018-06-28T19:38:37.970Z,46.39
2018-06-28T19:41:11.881Z,47.37
2018-06-28T19:43:40.508Z,46.50
2018-06-28T19:46:09.181Z,47.55
2018-06-28T19:48:37.709Z,47.38
2018-06-28T19:51:11.744Z,47.12
2018-06-28T19:53:40.325Z,48.19
2018-06-28T19:56:08.976Z,48.61
2018-06-28T19:58:37.580Z,48.43
2018-06-28T20:01:11.560Z,48.10
2018-06-28T20:03:45.444Z,48.91
2018-06-28T20:06:13.981Z,48.88
2018-06-28T20:08:42.531Z,49.72
2018-06-28T20:11:11.195Z,49.78
2018-06-28T20:13:44.928Z,49.64
2018-06-28T20:16:18.634Z,51.00
2018-06-28T20:18:52.439Z,50.83
2018-06-28T20:21:20.974Z,51.58
2018-06-28T20:23:49.661Z,51.47
2018-06-28T20:26:23.389Z,50.62
2018-06-28T20:28:57.244Z,50.93
2018-06-28T20:31:31.081Z,50.93
2018-06-28T20:34:04.946Z,50.61
2018-06-28T20:36:33.481Z,50.11
2018-06-28T20:39:01.986Z,50.55
2018-06-28T20:41:30.589Z,51.74
2018-06-28T20:43:59.307Z,51.46
2018-06-28T20:46:27.952Z,52.00
2018-06-28T20:48:56.828Z,51.90
2018-06-28T20:51:25.492Z,51.53
2018-06-28T20:53:54.061Z,53.74
2018-06-28T20:56:22.769Z,53.59
2018-06-28T20:58:51.412Z,53.59
2018-06-28T21:01:20.088Z,52.32
2018-06-28T21:03:48.800Z,53.44
2018-06-28T21:06:17.348Z,53.47
2018-06-28T21:08:45.963Z,53.43
2018-06-28T21:11:14.772Z,54.35
2018-06-28T21:13:43.348Z,54.13
2018-06-28T21:16:11.924Z,54.94
2018-06-28T21:18:40.537Z,55.34
2018-06-28T21:21:09.160Z,55.40
2018-06-28T21:23:37.921Z,54.59
2018-06-28T21:26:06.557Z,55.71
2018-06-28T21:28:35.111Z,55.23
2018-06-28T21:31:03.760Z,55.50
2018-06-28T21:33:32.416Z,54.33
2018-06-28T21:36:01.277Z,55.23
2018-06-28T21:38:29.829Z,55.09
2018-06-28T21:40:58.860Z,55.33
2018-06-28T21:43:27.367Z,55.70
2018-06-28T21:45:55.996Z,56.61
2018-06-28T21:48:24.631Z,56.43
2018-06-28T21:50:53.199Z,57.03
2018-06-28T21:53:21.772Z,57.19
2018-06-28T21:55:50.392Z,57.31
2018-06-28T21:58:19.237Z,57.32
2018-06-28T22:00:47.777Z,58.38
2018-06-28T22:03:16.421Z,57.96
2018-06-28T22:05:45.021Z,57.80
2018-06-28T22:08:13.654Z,58.51
2018-06-28T22:10:42.188Z,58.61
2018-06-28T22:13:10.768Z,57.61
2018-06-28T22:15:39.504Z,58.56
2018-06-28T22:18:08.029Z,57.86
2018-06-28T22:20:36.573Z,59.17
2018-06-28T22:23:05.230Z,59.61
2018-06-28T22:25:33.750Z,60.05
2018-06-28T22:28:02.293Z,60.10
2018-06-28T22:30:30.832Z,60.35
2018-06-28T22:32:59.375Z,61.61
2018-06-28T22:35:27.924Z,61.47
2018-06-28T22:37:56.564Z,60.85
2018-06-28T22:40:25.109Z,61.22
2018-06-28T22:42:53.651Z,60.64
2018-06-28T22:45:22.235Z,61.13
2018-06-28T22:47:50.830Z,60.69
2018-06-28T22:50:19.560Z,59.72
2018-06-28T22:52:48.164Z,61.07
2018-06-28T22:55:16.806Z,62.26
2018-06-28T22:57:45.424Z,61.42
2018-06-28T23:00:19.996Z,61.74
2018-06-28T23:02:48.540Z,64.61
2018-06-28T23:05:17.140Z,65.30
2018-06-28T23:07:45.691Z,63.79
2018-06-28T23:10:14.452Z,62.95
2018-06-28T23:12:43.468Z,63.56
2018-06-28T23:15:12.037Z,62.09
2018-06-28T23:17:40.629Z,63.63
2018-06-28T23:20:09.236Z,63.10
2018-06-28T23:22:50.943Z,63.66
2018-06-28T23:25:20.068Z,63.93
2018-06-28T23:27:49.459Z,64.37
2018-06-28T23:30:18.745Z,65.36
2018-06-28T23:32:47.174Z,65.26
2018-06-28T23:35:15.801Z,65.21
2018-06-28T23:37:44.380Z,65.40
2018-06-28T23:40:12.921Z,65.91
2018-06-28T23:42:41.568Z,67.54
2018-06-28T23:45:10.769Z,67.01
2018-06-28T23:47:39.493Z,68.67
2018-06-28T23:50:09.276Z,66.65
2018-06-28T23:52:37.844Z,66.16
2018-06-28T23:55:07.416Z,65.66
2018-06-28T23:57:36.524Z,64.67
